Suma — JM6252 — position and weather

sailwx.info

Track history (hours):
 
Tides and Currents Weather Stations Pressure Air Temp Water Temp Dewpoint Dewpoint Depression Visibility Wind Speed Wind Dir Waves Ship Positions

Suma

Last reported at 2018-Feb-24 06:01 UTC. Time now 2018-Feb-24 06:03 UTC.
Position N 33°58' E 131°45'.

Length 80 m; draft 4.5 m.

Type: Cargo ship. MMSI: 431600127.

Date/timePositionNaut miles runAvg speedWind from/ knotsBaromVisibWave heightAir tempDewpointWater temp
2018-Feb-24 06:01N 33°58' E 131°45'4 8.8
2018-Feb-24 05:30N 34°02' E 131°47'0 0.0
2018-Feb-24 05:01N 34°02' E 131°47'0 0.0
2018-Feb-24 04:23N 34°02' E 131°47'0 0.0
2018-Feb-24 03:47N 34°02' E 131°47'0 0.0
2018-Feb-24 03:23N 34°02' E 131°47'0 0.0
2018-Feb-24 02:53N 34°02' E 131°47'0 0.0
2018-Feb-24 02:29N 34°02' E 131°47'0 0.0
2018-Feb-24 02:00N 34°02' E 131°47'0 0.9
2018-Feb-24 01:30N 34°02' E 131°47'0 0.2
2018-Feb-24 00:48N 34°02' E 131°47'0 0.0
2018-Feb-24 00:27N 34°02' E 131°47'0 0.0
2018-Feb-23 23:51N 34°02' E 131°47'0 0.0
2018-Feb-23 23:21N 34°02' E 131°47'0 0.0
2018-Feb-23 22:57N 34°02' E 131°47'0 0.0
2018-Feb-23 22:21N 34°02' E 131°47'0 0.0
2018-Feb-23 21:57N 34°02' E 131°47'1 1.9
2018-Feb-23 21:28N 34°01' E 131°46'4 9.2
2018-Feb-23 20:59N 33°57' E 131°47'711.3
2018-Feb-23 20:24N 33°53' E 131°53'411.3
2018-Feb-23 20:00N 33°50' E 131°57'611.3
2018-Feb-23 19:30N 33°46' E 132°02'511.1
2018-Feb-23 19:00N 33°48' E 132°08'611.1
2018-Feb-23 18:30N 33°50' E 132°14'1110.4
2018-Feb-23 17:27N 33°54' E 132°27'610.0
2018-Feb-23 16:49N 33°58' E 132°33'3 9.1
2018-Feb-23 16:30N 33°60' E 132°35'510.3
2018-Feb-23 16:00N 34°03' E 132°40'81 9.9
2018-Feb-23 07:50N 34°25' E 134°14'410.1
2018-Feb-23 07:26N 34°25' E 134°19'510.6
2018-Feb-23 07:00N 34°26' E 134°24'510.8
2018-Feb-23 06:30N 34°28' E 134°30'510.9
2018-Feb-23 06:01N 34°30' E 134°36'611.1
2018-Feb-23 05:30N 34°32' E 134°42'611.8
2018-Feb-23 05:00N 34°34' E 134°49'612.8
2018-Feb-23 04:30N 34°37' E 134°56'611.9
2018-Feb-23 04:01N 34°36' E 135°03'611.1
2018-Feb-23 03:30N 34°37' E 135°10'510.1
2018-Feb-23 03:00N 34°38' E 135°16'1 2.7
2018-Feb-23 02:30N 34°39' E 135°15'0 0.1
2018-Feb-23 02:00N 34°39' E 135°15'2 3.7
2018-Feb-23 01:30N 34°41' E 135°16'1 1.1
2018-Feb-23 01:00N 34°41' E 135°17'0 0.0
2018-Feb-23 00:30N 34°41' E 135°17'0 0.0
2018-Feb-23 00:00N 34°41' E 135°17'2 4.3
2018-Feb-22 23:30N 34°40' E 135°19'0 0.7
2018-Feb-22 22:58N 34°39' E 135°19'0 0.2
2018-Feb-22 22:30N 34°39' E 135°19'5 9.8
2018-Feb-22 22:01N 34°36' E 135°15'510.9
2018-Feb-22 21:31N 34°35' E 135°08'611.4
2018-Feb-22 21:00N 34°37' E 135°02'611.5
2018-Feb-22 20:30N 34°35' E 134°55'510.9
2018-Feb-22 20:00N 34°33' E 134°49'510.7
2018-Feb-22 19:30N 34°31' E 134°43'510.8
2018-Feb-22 19:00N 34°29' E 134°37'510.9
2018-Feb-22 18:31N 34°27' E 134°31'610.9
2018-Feb-22 18:00N 34°25' E 134°25'1110.4
2018-Feb-22 16:58N 34°25' E 134°11'76 9.0
2018-Feb-22 08:34N 34°06' E 132°42'110.7
2018-Feb-22 08:30N 34°06' E 132°42'510.4
2018-Feb-22 08:00N 34°03' E 132°36'8 9.4
2018-Feb-22 07:10N 34°05' E 132°27'210.7
2018-Feb-22 06:58N 34°06' E 132°24'510.8
2018-Feb-22 06:30N 34°09' E 132°20'510.4
2018-Feb-22 06:00N 34°13' E 132°15'0 0.9
2018-Feb-22 05:30N 34°13' E 132°15'0 0.0
2018-Feb-22 05:00N 34°13' E 132°15'0 0.0
2018-Feb-22 04:30N 34°13' E 132°15'0 0.1
2018-Feb-22 03:58N 34°13' E 132°15'0 0.6
2018-Feb-22 03:30N 34°13' E 132°15'1 1.1
2018-Feb-22 03:00N 34°13' E 132°15'0 0.0
2018-Feb-22 02:30N 34°13' E 132°15'0 0.0
2018-Feb-22 02:00N 34°13' E 132°15'0 0.0
2018-Feb-22 01:30N 34°13' E 132°15'0 0.0
2018-Feb-22 01:00N 34°13' E 132°15'0 0.0
2018-Feb-22 00:30N 34°13' E 132°15'0 0.0
2018-Feb-22 00:00N 34°13' E 132°15'0 0.0
2018-Feb-21 23:30N 34°13' E 132°15'0 0.3
2018-Feb-21 22:12N 34°14' E 132°15'0 0.2
2018-Feb-21 21:54N 34°14' E 132°15'1 1.3
2018-Feb-21 21:30N 34°13' E 132°15'5 9.8
2018-Feb-21 21:00N 34°10' E 132°19'611.3
2018-Feb-21 20:30N 34°06' E 132°24'611.2
2018-Feb-21 19:56N 34°02' E 132°31'511.0
2018-Feb-21 19:30N 34°04' E 132°36'8310.9
2018-Feb-21 11:53N 34°25' E 134°13'511.8
2018-Feb-21 11:30N 34°25' E 134°18'611.7
2018-Feb-21 11:00N 34°26' E 134°25'611.7
2018-Feb-21 10:30N 34°28' E 134°32'611.6
2018-Feb-21 10:00N 34°30' E 134°38'611.2
2018-Feb-21 09:30N 34°32' E 134°45'510.5
2018-Feb-21 09:00N 34°34' E 134°51'5 9.1
2018-Feb-21 08:29N 34°36' E 134°56'4 8.7
2018-Feb-21 08:00N 34°37' E 135°01'4 8.2
2018-Feb-21 07:30N 34°36' E 135°06'611.5
2018-Feb-21 07:00N 34°37' E 135°12'510.4
2018-Feb-21 06:30N 34°40' E 135°18'1 2.9
2018-Feb-21 06:00N 34°41' E 135°17'0 0.0
2018-Feb-21 05:30N 34°41' E 135°17'0 0.0
2018-Feb-21 05:00N 34°41' E 135°17'1 2.7
2018-Feb-21 04:30N 34°41' E 135°15'2 3.6
2018-Feb-21 03:58N 34°41' E 135°13'0 0.0
2018-Feb-21 03:28N 34°41' E 135°13'0 0.1
2018-Feb-21 02:58N 34°41' E 135°13'0 0.0
2018-Feb-21 02:28N 34°41' E 135°13'0 0.1
2018-Feb-21 01:58N 34°41' E 135°13'0 0.1
2018-Feb-21 01:28N 34°41' E 135°13'0 0.1
2018-Feb-21 00:58N 34°41' E 135°13'0 0.0
2018-Feb-21 00:28N 34°41' E 135°13'0 0.0
2018-Feb-20 23:58N 34°41' E 135°13'0 0.0
2018-Feb-20 23:28N 34°41' E 135°13'0 0.6
2018-Feb-20 23:00N 34°41' E 135°13'4 7.8
2018-Feb-20 22:31N 34°38' E 135°16'4 8.4
2018-Feb-20 22:01N 34°35' E 135°13'510.3
2018-Feb-20 21:30N 34°35' E 135°06'713.2
2018-Feb-20 21:00N 34°37' E 134°59'713.5
2018-Feb-20 20:30N 34°34' E 134°51'612.1
2018-Feb-20 20:00N 34°32' E 134°45'611.4
2018-Feb-20 19:30N 34°29' E 134°38'511.0
2018-Feb-20 19:00N 34°27' E 134°32'611.0
2018-Feb-20 18:29N 34°25' E 134°26'511.0
2018-Feb-20 17:59N 34°24' E 134°19'8210.0
2018-Feb-20 09:47N 34°06' E 132°42'310.5
2018-Feb-20 09:30N 34°04' E 132°39'510.5
2018-Feb-20 09:00N 34°02' E 132°33'610.3
2018-Feb-20 08:25N 34°05' E 132°27'511.2
2018-Feb-20 07:59N 34°08' E 132°22'510.9
2018-Feb-20 07:30N 34°11' E 132°17'3 6.3
2018-Feb-20 07:01N 34°13' E 132°15'0 0.0
2018-Feb-20 06:30N 34°13' E 132°15'0 0.0
2018-Feb-20 05:59N 34°13' E 132°15'0 0.0
2018-Feb-20 05:20N 34°13' E 132°15'0 0.0
2018-Feb-20 04:56N 34°13' E 132°15'0 0.0
2018-Feb-20 04:26N 34°13' E 132°15'0 0.0
2018-Feb-20 03:53N 34°13' E 132°15'0 0.0
2018-Feb-20 03:26N 34°13' E 132°15'0 0.0
2018-Feb-20 02:59N 34°13' E 132°15'0 0.0
2018-Feb-20 02:29N 34°13' E 132°15'0 0.0
2018-Feb-20 01:59N 34°13' E 132°15'0 0.0
2018-Feb-20 01:26N 34°13' E 132°15'1 0.5
2018-Feb-20 00:09N 34°13' E 132°15'0 0.1
2018-Feb-19 23:18N 34°14' E 132°15'0 0.0
2018-Feb-19 23:00N 34°14' E 132°15'0 0.0
2018-Feb-19 22:18N 34°14' E 132°15'0 0.0
2018-Feb-19 22:00N 34°14' E 132°15'0 0.0
2018-Feb-19 21:30N 34°14' E 132°15'3 6.6
2018-Feb-19 21:00N 34°11' E 132°17'610.8
2018-Feb-19 20:29N 34°07' E 132°23'611.3
2018-Feb-19 19:57N 34°04' E 132°29'5 9.6
2018-Feb-19 19:27N 34°03' E 132°34'512.4
2018-Feb-19 19:00N 34°05' E 132°40'7211.4
2018-Feb-19 12:41N 34°27' E 134°04'513.0
2018-Feb-19 12:19N 34°26' E 134°10'413.1
2018-Feb-19 12:00N 34°24' E 134°14'612.1
2018-Feb-19 11:30N 34°25' E 134°21'611.8
2018-Feb-19 11:00N 34°27' E 134°28'611.4
2018-Feb-19 10:30N 34°29' E 134°34'611.4
2018-Feb-19 10:00N 34°32' E 134°41'611.1
2018-Feb-19 09:30N 34°33' E 134°47'510.2
2018-Feb-19 09:00N 34°35' E 134°53'5 9.6
2018-Feb-19 08:30N 34°37' E 134°58'4 7.8
2018-Feb-19 08:00N 34°36' E 135°03'5 9.7
2018-Feb-19 07:30N 34°36' E 135°09'511.2
2018-Feb-19 07:00N 34°38' E 135°15'2 3.1
2018-Feb-19 06:30N 34°39' E 135°15'0 0.0
2018-Feb-19 06:00N 34°39' E 135°15'0 0.0
2018-Feb-19 05:31N 34°39' E 135°15'2 3.6
2018-Feb-19 05:00N 34°41' E 135°16'1 1.2
2018-Feb-19 04:30N 34°41' E 135°17'0 0.0
2018-Feb-19 04:00N 34°41' E 135°17'3 5.2
2018-Feb-19 03:30N 34°39' E 135°19'0 0.3
2018-Feb-19 03:00N 34°39' E 135°19'0 0.0
2018-Feb-19 02:28N 34°39' E 135°19'0 0.0
2018-Feb-19 02:01N 34°39' E 135°19'0 0.0
2018-Feb-19 01:31N 34°39' E 135°19'0 0.0
2018-Feb-19 01:01N 34°39' E 135°19'2 4.3
2018-Feb-19 00:31N 34°39' E 135°17'2 3.9
2018-Feb-19 00:00N 34°39' E 135°15'0 0.0
2018-Feb-18 23:31N 34°39' E 135°15'2 3.1
2018-Feb-18 23:00N 34°41' E 135°14'1 2.1
2018-Feb-18 22:30N 34°41' E 135°13'0 0.0
2018-Feb-18 22:00N 34°41' E 135°13'0 0.0
2018-Feb-18 21:30N 34°41' E 135°13'0 0.0
2018-Feb-18 21:00N 34°41' E 135°13'0 0.0
2018-Feb-18 20:30N 34°41' E 135°13'0 0.0
2018-Feb-18 20:00N 34°41' E 135°13'0 0.0
2018-Feb-18 19:30N 34°41' E 135°13'0 0.0
2018-Feb-18 19:00N 34°41' E 135°13'0 0.0
2018-Feb-18 18:30N 34°41' E 135°13'0 0.0
2018-Feb-18 18:00N 34°41' E 135°13'0 0.0
2018-Feb-18 17:30N 34°41' E 135°13'0 0.0
2018-Feb-18 17:00N 34°41' E 135°13'0 0.0
2018-Feb-18 16:30N 34°41' E 135°13'0 0.0
2018-Feb-18 16:00N 34°41' E 135°13'0 0.0
2018-Feb-18 15:30N 34°41' E 135°13'0 0.0
2018-Feb-18 14:57N 34°41' E 135°13'0 0.0
2018-Feb-18 14:30N 34°41' E 135°13'0 0.0
2018-Feb-18 14:00N 34°41' E 135°13'0 0.0
2018-Feb-18 13:30N 34°41' E 135°13'0 0.0
2018-Feb-18 13:00N 34°41' E 135°13'0 0.0
2018-Feb-18 12:30N 34°41' E 135°13'0 0.0
2018-Feb-18 12:00N 34°41' E 135°13'0 0.0
2018-Feb-18 11:30N 34°41' E 135°13'0 0.0
2018-Feb-18 11:00N 34°41' E 135°13'0 0.0
2018-Feb-18 10:30N 34°41' E 135°13'0 0.0
2018-Feb-18 10:00N 34°41' E 135°13'0 0.0
2018-Feb-18 09:30N 34°41' E 135°13'0 0.0
2018-Feb-18 09:00N 34°41' E 135°13'0 0.2
2018-Feb-18 08:30N 34°41' E 135°13'4 7.7
2018-Feb-18 08:00N 34°38' E 135°16'5 9.5
2018-Feb-18 07:30N 34°35' E 135°12'611.9
2018-Feb-18 07:01N 34°35' E 135°05'612.7
2018-Feb-18 06:31N 34°36' E 134°57'713.3
2018-Feb-18 06:00N 34°34' E 134°50'611.3
2018-Feb-18 05:30N 34°31' E 134°43'611.3
2018-Feb-18 05:00N 34°29' E 134°37'611.0
2018-Feb-18 04:30N 34°27' E 134°31'610.8
2018-Feb-18 03:59N 34°25' E 134°25'510.6
2018-Feb-18 03:29N 34°24' E 134°18'78 8.8
2018-Feb-17 18:42N 34°05' E 132°47'2 9.4
2018-Feb-17 18:29N 34°04' E 132°45'5 9.6
2018-Feb-17 18:00N 34°02' E 132°40'5 9.4
2018-Feb-17 17:30N 33°59' E 132°35'4 8.2
2018-Feb-17 17:00N 33°57' E 132°32'5 9.0
2018-Feb-17 16:29N 33°54' E 132°28'5 9.6
2018-Feb-17 15:59N 33°50' E 132°23'5 9.7
2018-Feb-17 15:30N 33°50' E 132°18'1110.3
2018-Feb-17 14:24N 33°46' E 132°05'4 8.7
2018-Feb-17 14:00N 33°47' E 132°01'1111.1
2018-Feb-17 12:58N 33°54' E 131°50'510.9
2018-Feb-17 12:30N 33°57' E 131°45'5 9.5
2018-Feb-17 12:00N 34°02' E 131°47'0 0.7
2018-Feb-17 11:30N 34°02' E 131°47'0 0.0
2018-Feb-17 11:00N 34°02' E 131°47'0 0.0
2018-Feb-17 10:30N 34°02' E 131°47'0 0.0
2018-Feb-17 10:00N 34°02' E 131°47'0 0.0
2018-Feb-17 09:30N 34°02' E 131°47'0 0.0
2018-Feb-17 09:00N 34°02' E 131°47'0 0.0
2018-Feb-17 08:30N 34°02' E 131°47'0 0.0
2018-Feb-17 08:00N 34°02' E 131°47'0 0.1
2018-Feb-17 04:11N 34°02' E 131°47'0 0.0
2018-Feb-17 03:41N 34°02' E 131°47'0 0.0
2018-Feb-17 03:11N 34°02' E 131°47'0 0.0
2018-Feb-17 03:00N 34°02' E 131°47'3 6.0
2018-Feb-17 02:30N 33°60' E 131°45'5 9.0
2018-Feb-17 01:58N 33°56' E 131°48'710.1
2018-Feb-17 01:16N 33°51' E 131°55'410.0
2018-Feb-17 00:51N 33°49' E 131°59'410.2
2018-Feb-17 00:30N 33°46' E 132°02'5 9.7
2018-Feb-16 23:56N 33°48' E 132°08'5 9.6
2018-Feb-16 23:24N 33°50' E 132°14'410.1
2018-Feb-16 22:59N 33°50' E 132°19'7 9.0
2018-Feb-16 22:12N 33°53' E 132°27'7 9.6
2018-Feb-16 21:30N 33°57' E 132°33'510.1
2018-Feb-16 21:01N 34°01' E 132°37'8010.3
2018-Feb-16 13:13N 34°26' E 134°09'412.0
2018-Feb-16 12:53N 34°25' E 134°13'511.7
2018-Feb-16 12:30N 34°25' E 134°19'611.5
2018-Feb-16 12:00N 34°26' E 134°26'611.4
2018-Feb-16 11:31N 34°28' E 134°32'611.5
2018-Feb-16 10:59N 34°31' E 134°39'511.5
2018-Feb-16 10:30N 34°33' E 134°45'611.8
2018-Feb-16 10:00N 34°35' E 134°52'611.8
2018-Feb-16 09:30N 34°37' E 134°58'510.6
2018-Feb-16 09:01N 34°36' E 135°04'611.5
2018-Feb-16 08:31N 34°37' E 135°11'4 8.2
2018-Feb-16 08:01N 34°39' E 135°15'1 1.2
2018-Feb-16 07:30N 34°39' E 135°15'0 0.1
2018-Feb-16 07:00N 34°39' E 135°15'0 0.1
2018-Feb-16 06:30N 34°39' E 135°15'2 4.8
2018-Feb-16 06:00N 34°41' E 135°17'0 0.2
2018-Feb-16 05:30N 34°41' E 135°17'2 4.3
2018-Feb-16 05:00N 34°39' E 135°19'0 0.7
2018-Feb-16 04:28N 34°39' E 135°19'0 0.0
2018-Feb-16 03:58N 34°39' E 135°19'0 0.0
2018-Feb-16 03:28N 34°39' E 135°19'0 0.0
2018-Feb-16 02:58N 34°39' E 135°19'0 0.0
2018-Feb-16 02:28N 34°39' E 135°19'0 0.0
2018-Feb-16 01:58N 34°39' E 135°19'0 0.0
2018-Feb-16 01:28N 34°39' E 135°19'0 0.0
2018-Feb-16 00:58N 34°39' E 135°19'0 0.0
2018-Feb-16 00:28N 34°39' E 135°19'0 0.1
2018-Feb-15 23:58N 34°39' E 135°19'0 0.0
2018-Feb-15 23:28N 34°39' E 135°19'0 0.0
2018-Feb-15 22:58N 34°39' E 135°19'0 0.0
2018-Feb-15 22:28N 34°39' E 135°19'0 0.1
2018-Feb-15 21:58N 34°39' E 135°19'0 0.0
2018-Feb-15 21:28N 34°39' E 135°19'0 0.0
2018-Feb-15 20:55N 34°39' E 135°19'0 0.1
2018-Feb-15 20:28N 34°39' E 135°19'0 0.0
2018-Feb-15 19:58N 34°39' E 135°19'0 0.0
2018-Feb-15 19:28N 34°39' E 135°19'0 0.0
2018-Feb-15 18:58N 34°39' E 135°19'0 0.0
2018-Feb-15 18:28N 34°39' E 135°19'0 0.0
2018-Feb-15 17:58N 34°39' E 135°19'0 0.0
2018-Feb-15 17:28N 34°39' E 135°19'0 0.0
2018-Feb-15 16:58N 34°39' E 135°19'0 0.0
2018-Feb-15 16:28N 34°39' E 135°19'1 1.1
2018-Feb-15 16:00N 34°39' E 135°19'5 9.5
2018-Feb-15 15:30N 34°36' E 135°15'510.2
2018-Feb-15 15:00N 34°35' E 135°08'611.1
2018-Feb-15 14:30N 34°37' E 135°02'611.2
2018-Feb-15 14:00N 34°36' E 134°55'510.6
2018-Feb-15 13:30N 34°33' E 134°49'510.2
2018-Feb-15 13:00N 34°31' E 134°44'510.1
2018-Feb-15 12:30N 34°29' E 134°38'510.1
2018-Feb-15 12:00N 34°27' E 134°32'510.2
2018-Feb-15 11:30N 34°26' E 134°27'87 8.8
2018-Feb-15 01:38N 34°01' E 132°46'212.6
2018-Feb-15 01:30N 33°60' E 132°45'712.8
2018-Feb-15 00:58N 33°54' E 132°42'3 4.4
2018-Feb-15 00:22N 33°51' E 132°42'0 0.0
2018-Feb-14 23:55N 33°51' E 132°42'0 0.0
2018-Feb-14 23:30N 33°51' E 132°42'0 0.3
2018-Feb-14 23:00N 33°51' E 132°42'2 2.9
2018-Feb-14 22:26N 33°52' E 132°40'0 0.0
2018-Feb-14 21:57N 33°52' E 132°40'0 0.0
2018-Feb-14 20:45N 33°52' E 132°40'0 0.0
2018-Feb-14 20:30N 33°52' E 132°40'0 0.1
2018-Feb-14 19:30N 33°52' E 132°40'0 0.1
2018-Feb-14 18:59N 33°52' E 132°40'4 7.7
2018-Feb-14 18:30N 33°55' E 132°42'7910.7
2018-Feb-14 11:10N 34°26' E 134°09'312.9
2018-Feb-14 10:55N 34°24' E 134°13'512.3
2018-Feb-14 10:30N 34°25' E 134°19'611.7
2018-Feb-14 10:01N 34°27' E 134°26'611.5
2018-Feb-14 09:30N 34°29' E 134°33'611.2
2018-Feb-14 09:00N 34°31' E 134°39'611.3
2018-Feb-14 08:31N 34°33' E 134°45'611.1
2018-Feb-14 08:01N 34°35' E 134°52'510.6
2018-Feb-14 07:30N 34°37' E 134°57'5 9.1
2018-Feb-14 07:00N 34°36' E 135°03'510.5
2018-Feb-14 06:30N 34°37' E 135°09'  
Track history (hours):
 
Tides and Currents Weather Stations Pressure Air Temp Water Temp Dewpoint Dewpoint Depression Visibility Wind Speed Wind Dir Waves Ship Positions

Suma

Last reported at 2018-Feb-24 06:01 UTC. Time now 2018-Feb-24 06:03 UTC.
Position N 33°58' E 131°45'.

Length 80 m; draft 4.5 m.

Type: Cargo ship. MMSI: 431600127.

Date/timePositionNaut miles runAvg speedWind from/ knotsBaromVisibWave heightAir tempDewpointWater temp
2018-Feb-24 06:01N 33°58' E 131°45'4 8.8
2018-Feb-24 05:30N 34°02' E 131°47'0 0.0
2018-Feb-24 05:01N 34°02' E 131°47'0 0.0
2018-Feb-24 04:23N 34°02' E 131°47'0 0.0
2018-Feb-24 03:47N 34°02' E 131°47'0 0.0
2018-Feb-24 03:23N 34°02' E 131°47'0 0.0
2018-Feb-24 02:53N 34°02' E 131°47'0 0.0
2018-Feb-24 02:29N 34°02' E 131°47'0 0.0
2018-Feb-24 02:00N 34°02' E 131°47'0 0.9
2018-Feb-24 01:30N 34°02' E 131°47'0 0.2
2018-Feb-24 00:48N 34°02' E 131°47'0 0.0
2018-Feb-24 00:27N 34°02' E 131°47'0 0.0
2018-Feb-23 23:51N 34°02' E 131°47'0 0.0
2018-Feb-23 23:21N 34°02' E 131°47'0 0.0
2018-Feb-23 22:57N 34°02' E 131°47'0 0.0
2018-Feb-23 22:21N 34°02' E 131°47'0 0.0
2018-Feb-23 21:57N 34°02' E 131°47'1 1.9
2018-Feb-23 21:28N 34°01' E 131°46'4 9.2
2018-Feb-23 20:59N 33°57' E 131°47'711.3
2018-Feb-23 20:24N 33°53' E 131°53'411.3
2018-Feb-23 20:00N 33°50' E 131°57'611.3
2018-Feb-23 19:30N 33°46' E 132°02'511.1
2018-Feb-23 19:00N 33°48' E 132°08'611.1
2018-Feb-23 18:30N 33°50' E 132°14'1110.4
2018-Feb-23 17:27N 33°54' E 132°27'610.0
2018-Feb-23 16:49N 33°58' E 132°33'3 9.1
2018-Feb-23 16:30N 33°60' E 132°35'510.3
2018-Feb-23 16:00N 34°03' E 132°40'81 9.9
2018-Feb-23 07:50N 34°25' E 134°14'410.1
2018-Feb-23 07:26N 34°25' E 134°19'510.6
2018-Feb-23 07:00N 34°26' E 134°24'510.8
2018-Feb-23 06:30N 34°28' E 134°30'510.9
2018-Feb-23 06:01N 34°30' E 134°36'611.1
2018-Feb-23 05:30N 34°32' E 134°42'611.8
2018-Feb-23 05:00N 34°34' E 134°49'612.8
2018-Feb-23 04:30N 34°37' E 134°56'611.9
2018-Feb-23 04:01N 34°36' E 135°03'611.1
2018-Feb-23 03:30N 34°37' E 135°10'510.1
2018-Feb-23 03:00N 34°38' E 135°16'1 2.7
2018-Feb-23 02:30N 34°39' E 135°15'0 0.1
2018-Feb-23 02:00N 34°39' E 135°15'2 3.7
2018-Feb-23 01:30N 34°41' E 135°16'1 1.1
2018-Feb-23 01:00N 34°41' E 135°17'0 0.0
2018-Feb-23 00:30N 34°41' E 135°17'0 0.0
2018-Feb-23 00:00N 34°41' E 135°17'2 4.3
2018-Feb-22 23:30N 34°40' E 135°19'0 0.7
2018-Feb-22 22:58N 34°39' E 135°19'0 0.2
2018-Feb-22 22:30N 34°39' E 135°19'5 9.8
2018-Feb-22 22:01N 34°36' E 135°15'510.9
2018-Feb-22 21:31N 34°35' E 135°08'611.4
2018-Feb-22 21:00N 34°37' E 135°02'611.5
2018-Feb-22 20:30N 34°35' E 134°55'510.9
2018-Feb-22 20:00N 34°33' E 134°49'510.7
2018-Feb-22 19:30N 34°31' E 134°43'510.8
2018-Feb-22 19:00N 34°29' E 134°37'510.9
2018-Feb-22 18:31N 34°27' E 134°31'610.9
2018-Feb-22 18:00N 34°25' E 134°25'1110.4
2018-Feb-22 16:58N 34°25' E 134°11'76 9.0
2018-Feb-22 08:34N 34°06' E 132°42'110.7
2018-Feb-22 08:30N 34°06' E 132°42'510.4
2018-Feb-22 08:00N 34°03' E 132°36'8 9.4
2018-Feb-22 07:10N 34°05' E 132°27'210.7
2018-Feb-22 06:58N 34°06' E 132°24'510.8
2018-Feb-22 06:30N 34°09' E 132°20'510.4
2018-Feb-22 06:00N 34°13' E 132°15'0 0.9
2018-Feb-22 05:30N 34°13' E 132°15'0 0.0
2018-Feb-22 05:00N 34°13' E 132°15'0 0.0
2018-Feb-22 04:30N 34°13' E 132°15'0 0.1
2018-Feb-22 03:58N 34°13' E 132°15'0 0.6
2018-Feb-22 03:30N 34°13' E 132°15'1 1.1
2018-Feb-22 03:00N 34°13' E 132°15'0 0.0
2018-Feb-22 02:30N 34°13' E 132°15'0 0.0
2018-Feb-22 02:00N 34°13' E 132°15'0 0.0
2018-Feb-22 01:30N 34°13' E 132°15'0 0.0
2018-Feb-22 01:00N 34°13' E 132°15'0 0.0
2018-Feb-22 00:30N 34°13' E 132°15'0 0.0
2018-Feb-22 00:00N 34°13' E 132°15'0 0.0
2018-Feb-21 23:30N 34°13' E 132°15'0 0.3
2018-Feb-21 22:12N 34°14' E 132°15'0 0.2
2018-Feb-21 21:54N 34°14' E 132°15'1 1.3
2018-Feb-21 21:30N 34°13' E 132°15'5 9.8
2018-Feb-21 21:00N 34°10' E 132°19'611.3
2018-Feb-21 20:30N 34°06' E 132°24'611.2
2018-Feb-21 19:56N 34°02' E 132°31'511.0
2018-Feb-21 19:30N 34°04' E 132°36'8310.9
2018-Feb-21 11:53N 34°25' E 134°13'511.8
2018-Feb-21 11:30N 34°25' E 134°18'611.7
2018-Feb-21 11:00N 34°26' E 134°25'611.7
2018-Feb-21 10:30N 34°28' E 134°32'611.6
2018-Feb-21 10:00N 34°30' E 134°38'611.2
2018-Feb-21 09:30N 34°32' E 134°45'510.5
2018-Feb-21 09:00N 34°34' E 134°51'5 9.1
2018-Feb-21 08:29N 34°36' E 134°56'4 8.7
2018-Feb-21 08:00N 34°37' E 135°01'4 8.2
2018-Feb-21 07:30N 34°36' E 135°06'611.5
2018-Feb-21 07:00N 34°37' E 135°12'510.4
2018-Feb-21 06:30N 34°40' E 135°18'1 2.9
2018-Feb-21 06:00N 34°41' E 135°17'0 0.0
2018-Feb-21 05:30N 34°41' E 135°17'0 0.0
2018-Feb-21 05:00N 34°41' E 135°17'1 2.7
2018-Feb-21 04:30N 34°41' E 135°15'2 3.6
2018-Feb-21 03:58N 34°41' E 135°13'0 0.0
2018-Feb-21 03:28N 34°41' E 135°13'0 0.1
2018-Feb-21 02:58N 34°41' E 135°13'0 0.0
2018-Feb-21 02:28N 34°41' E 135°13'0 0.1
2018-Feb-21 01:58N 34°41' E 135°13'0 0.1
2018-Feb-21 01:28N 34°41' E 135°13'0 0.1
2018-Feb-21 00:58N 34°41' E 135°13'0 0.0
2018-Feb-21 00:28N 34°41' E 135°13'0 0.0
2018-Feb-20 23:58N 34°41' E 135°13'0 0.0
2018-Feb-20 23:28N 34°41' E 135°13'0 0.6
2018-Feb-20 23:00N 34°41' E 135°13'4 7.8
2018-Feb-20 22:31N 34°38' E 135°16'4 8.4
2018-Feb-20 22:01N 34°35' E 135°13'510.3
2018-Feb-20 21:30N 34°35' E 135°06'713.2
2018-Feb-20 21:00N 34°37' E 134°59'713.5
2018-Feb-20 20:30N 34°34' E 134°51'612.1
2018-Feb-20 20:00N 34°32' E 134°45'611.4
2018-Feb-20 19:30N 34°29' E 134°38'511.0
2018-Feb-20 19:00N 34°27' E 134°32'611.0
2018-Feb-20 18:29N 34°25' E 134°26'511.0
2018-Feb-20 17:59N 34°24' E 134°19'8210.0
2018-Feb-20 09:47N 34°06' E 132°42'310.5
2018-Feb-20 09:30N 34°04' E 132°39'510.5
2018-Feb-20 09:00N 34°02' E 132°33'610.3
2018-Feb-20 08:25N 34°05' E 132°27'511.2
2018-Feb-20 07:59N 34°08' E 132°22'510.9
2018-Feb-20 07:30N 34°11' E 132°17'3 6.3
2018-Feb-20 07:01N 34°13' E 132°15'0 0.0
2018-Feb-20 06:30N 34°13' E 132°15'0 0.0
2018-Feb-20 05:59N 34°13' E 132°15'0 0.0
2018-Feb-20 05:20N 34°13' E 132°15'0 0.0
2018-Feb-20 04:56N 34°13' E 132°15'0 0.0
2018-Feb-20 04:26N 34°13' E 132°15'0 0.0
2018-Feb-20 03:53N 34°13' E 132°15'0 0.0
2018-Feb-20 03:26N 34°13' E 132°15'0 0.0
2018-Feb-20 02:59N 34°13' E 132°15'0 0.0
2018-Feb-20 02:29N 34°13' E 132°15'0 0.0
2018-Feb-20 01:59N 34°13' E 132°15'0 0.0
2018-Feb-20 01:26N 34°13' E 132°15'1 0.5
2018-Feb-20 00:09N 34°13' E 132°15'0 0.1
2018-Feb-19 23:18N 34°14' E 132°15'0 0.0
2018-Feb-19 23:00N 34°14' E 132°15'0 0.0
2018-Feb-19 22:18N 34°14' E 132°15'0 0.0
2018-Feb-19 22:00N 34°14' E 132°15'0 0.0
2018-Feb-19 21:30N 34°14' E 132°15'3 6.6
2018-Feb-19 21:00N 34°11' E 132°17'610.8
2018-Feb-19 20:29N 34°07' E 132°23'611.3
2018-Feb-19 19:57N 34°04' E 132°29'5 9.6
2018-Feb-19 19:27N 34°03' E 132°34'512.4
2018-Feb-19 19:00N 34°05' E 132°40'7211.4
2018-Feb-19 12:41N 34°27' E 134°04'513.0
2018-Feb-19 12:19N 34°26' E 134°10'413.1
2018-Feb-19 12:00N 34°24' E 134°14'612.1
2018-Feb-19 11:30N 34°25' E 134°21'611.8
2018-Feb-19 11:00N 34°27' E 134°28'611.4
2018-Feb-19 10:30N 34°29' E 134°34'611.4
2018-Feb-19 10:00N 34°32' E 134°41'611.1
2018-Feb-19 09:30N 34°33' E 134°47'510.2
2018-Feb-19 09:00N 34°35' E 134°53'5 9.6
2018-Feb-19 08:30N 34°37' E 134°58'4 7.8
2018-Feb-19 08:00N 34°36' E 135°03'5 9.7
2018-Feb-19 07:30N 34°36' E 135°09'511.2
2018-Feb-19 07:00N 34°38' E 135°15'2 3.1
2018-Feb-19 06:30N 34°39' E 135°15'0 0.0
2018-Feb-19 06:00N 34°39' E 135°15'0 0.0
2018-Feb-19 05:31N 34°39' E 135°15'2 3.6
2018-Feb-19 05:00N 34°41' E 135°16'1 1.2
2018-Feb-19 04:30N 34°41' E 135°17'0 0.0
2018-Feb-19 04:00N 34°41' E 135°17'3 5.2
2018-Feb-19 03:30N 34°39' E 135°19'0 0.3
2018-Feb-19 03:00N 34°39' E 135°19'0 0.0
2018-Feb-19 02:28N 34°39' E 135°19'0 0.0
2018-Feb-19 02:01N 34°39' E 135°19'0 0.0
2018-Feb-19 01:31N 34°39' E 135°19'0 0.0
2018-Feb-19 01:01N 34°39' E 135°19'2 4.3
2018-Feb-19 00:31N 34°39' E 135°17'2 3.9
2018-Feb-19 00:00N 34°39' E 135°15'0 0.0
2018-Feb-18 23:31N 34°39' E 135°15'2 3.1
2018-Feb-18 23:00N 34°41' E 135°14'1 2.1
2018-Feb-18 22:30N 34°41' E 135°13'0 0.0
2018-Feb-18 22:00N 34°41' E 135°13'0 0.0
2018-Feb-18 21:30N 34°41' E 135°13'0 0.0
2018-Feb-18 21:00N 34°41' E 135°13'0 0.0
2018-Feb-18 20:30N 34°41' E 135°13'0 0.0
2018-Feb-18 20:00N 34°41' E 135°13'0 0.0
2018-Feb-18 19:30N 34°41' E 135°13'0 0.0
2018-Feb-18 19:00N 34°41' E 135°13'0 0.0
2018-Feb-18 18:30N 34°41' E 135°13'0 0.0
2018-Feb-18 18:00N 34°41' E 135°13'0 0.0
2018-Feb-18 17:30N 34°41' E 135°13'0 0.0
2018-Feb-18 17:00N 34°41' E 135°13'0 0.0
2018-Feb-18 16:30N 34°41' E 135°13'0 0.0
2018-Feb-18 16:00N 34°41' E 135°13'0 0.0
2018-Feb-18 15:30N 34°41' E 135°13'0 0.0
2018-Feb-18 14:57N 34°41' E 135°13'0 0.0
2018-Feb-18 14:30N 34°41' E 135°13'0 0.0
2018-Feb-18 14:00N 34°41' E 135°13'0 0.0
2018-Feb-18 13:30N 34°41' E 135°13'0 0.0
2018-Feb-18 13:00N 34°41' E 135°13'0 0.0
2018-Feb-18 12:30N 34°41' E 135°13'0 0.0
2018-Feb-18 12:00N 34°41' E 135°13'0 0.0
2018-Feb-18 11:30N 34°41' E 135°13'0 0.0
2018-Feb-18 11:00N 34°41' E 135°13'0 0.0
2018-Feb-18 10:30N 34°41' E 135°13'0 0.0
2018-Feb-18 10:00N 34°41' E 135°13'0 0.0
2018-Feb-18 09:30N 34°41' E 135°13'0 0.0
2018-Feb-18 09:00N 34°41' E 135°13'0 0.2
2018-Feb-18 08:30N 34°41' E 135°13'4 7.7
2018-Feb-18 08:00N 34°38' E 135°16'5 9.5
2018-Feb-18 07:30N 34°35' E 135°12'611.9
2018-Feb-18 07:01N 34°35' E 135°05'612.7
2018-Feb-18 06:31N 34°36' E 134°57'713.3
2018-Feb-18 06:00N 34°34' E 134°50'611.3
2018-Feb-18 05:30N 34°31' E 134°43'611.3
2018-Feb-18 05:00N 34°29' E 134°37'611.0
2018-Feb-18 04:30N 34°27' E 134°31'610.8
2018-Feb-18 03:59N 34°25' E 134°25'510.6
2018-Feb-18 03:29N 34°24' E 134°18'78 8.8
2018-Feb-17 18:42N 34°05' E 132°47'2 9.4
2018-Feb-17 18:29N 34°04' E 132°45'5 9.6
2018-Feb-17 18:00N 34°02' E 132°40'5 9.4
2018-Feb-17 17:30N 33°59' E 132°35'4 8.2
2018-Feb-17 17:00N 33°57' E 132°32'5 9.0
2018-Feb-17 16:29N 33°54' E 132°28'5 9.6
2018-Feb-17 15:59N 33°50' E 132°23'5 9.7
2018-Feb-17 15:30N 33°50' E 132°18'1110.3
2018-Feb-17 14:24N 33°46' E 132°05'4 8.7
2018-Feb-17 14:00N 33°47' E 132°01'1111.1
2018-Feb-17 12:58N 33°54' E 131°50'510.9
2018-Feb-17 12:30N 33°57' E 131°45'5 9.5
2018-Feb-17 12:00N 34°02' E 131°47'0 0.7
2018-Feb-17 11:30N 34°02' E 131°47'0 0.0
2018-Feb-17 11:00N 34°02' E 131°47'0 0.0
2018-Feb-17 10:30N 34°02' E 131°47'0 0.0
2018-Feb-17 10:00N 34°02' E 131°47'0 0.0
2018-Feb-17 09:30N 34°02' E 131°47'0 0.0
2018-Feb-17 09:00N 34°02' E 131°47'0 0.0
2018-Feb-17 08:30N 34°02' E 131°47'0 0.0
2018-Feb-17 08:00N 34°02' E 131°47'0 0.1
2018-Feb-17 04:11N 34°02' E 131°47'0 0.0
2018-Feb-17 03:41N 34°02' E 131°47'0 0.0
2018-Feb-17 03:11N 34°02' E 131°47'0 0.0
2018-Feb-17 03:00N 34°02' E 131°47'3 6.0
2018-Feb-17 02:30N 33°60' E 131°45'5 9.0
2018-Feb-17 01:58N 33°56' E 131°48'710.1
2018-Feb-17 01:16N 33°51' E 131°55'410.0
2018-Feb-17 00:51N 33°49' E 131°59'410.2
2018-Feb-17 00:30N 33°46' E 132°02'5 9.7
2018-Feb-16 23:56N 33°48' E 132°08'5 9.6
2018-Feb-16 23:24N 33°50' E 132°14'410.1
2018-Feb-16 22:59N 33°50' E 132°19'7 9.0
2018-Feb-16 22:12N 33°53' E 132°27'7 9.6
2018-Feb-16 21:30N 33°57' E 132°33'510.1
2018-Feb-16 21:01N 34°01' E 132°37'8010.3
2018-Feb-16 13:13N 34°26' E 134°09'412.0
2018-Feb-16 12:53N 34°25' E 134°13'511.7
2018-Feb-16 12:30N 34°25' E 134°19'611.5
2018-Feb-16 12:00N 34°26' E 134°26'611.4
2018-Feb-16 11:31N 34°28' E 134°32'611.5
2018-Feb-16 10:59N 34°31' E 134°39'511.5
2018-Feb-16 10:30N 34°33' E 134°45'611.8
2018-Feb-16 10:00N 34°35' E 134°52'611.8
2018-Feb-16 09:30N 34°37' E 134°58'510.6
2018-Feb-16 09:01N 34°36' E 135°04'611.5
2018-Feb-16 08:31N 34°37' E 135°11'4 8.2
2018-Feb-16 08:01N 34°39' E 135°15'1 1.2
2018-Feb-16 07:30N 34°39' E 135°15'0 0.1
2018-Feb-16 07:00N 34°39' E 135°15'0 0.1
2018-Feb-16 06:30N 34°39' E 135°15'2 4.8
2018-Feb-16 06:00N 34°41' E 135°17'0 0.2
2018-Feb-16 05:30N 34°41' E 135°17'2 4.3
2018-Feb-16 05:00N 34°39' E 135°19'0 0.7
2018-Feb-16 04:28N 34°39' E 135°19'0 0.0
2018-Feb-16 03:58N 34°39' E 135°19'0 0.0
2018-Feb-16 03:28N 34°39' E 135°19'0 0.0
2018-Feb-16 02:58N 34°39' E 135°19'0 0.0
2018-Feb-16 02:28N 34°39' E 135°19'0 0.0
2018-Feb-16 01:58N 34°39' E 135°19'0 0.0
2018-Feb-16 01:28N 34°39' E 135°19'0 0.0
2018-Feb-16 00:58N 34°39' E 135°19'0 0.0
2018-Feb-16 00:28N 34°39' E 135°19'0 0.1
2018-Feb-15 23:58N 34°39' E 135°19'0 0.0
2018-Feb-15 23:28N 34°39' E 135°19'0 0.0
2018-Feb-15 22:58N 34°39' E 135°19'0 0.0
2018-Feb-15 22:28N 34°39' E 135°19'0 0.1
2018-Feb-15 21:58N 34°39' E 135°19'0 0.0
2018-Feb-15 21:28N 34°39' E 135°19'0 0.0
2018-Feb-15 20:55N 34°39' E 135°19'0 0.1
2018-Feb-15 20:28N 34°39' E 135°19'0 0.0
2018-Feb-15 19:58N 34°39' E 135°19'0 0.0
2018-Feb-15 19:28N 34°39' E 135°19'0 0.0
2018-Feb-15 18:58N 34°39' E 135°19'0 0.0
2018-Feb-15 18:28N 34°39' E 135°19'0 0.0
2018-Feb-15 17:58N 34°39' E 135°19'0 0.0
2018-Feb-15 17:28N 34°39' E 135°19'0 0.0
2018-Feb-15 16:58N 34°39' E 135°19'0 0.0
2018-Feb-15 16:28N 34°39' E 135°19'1 1.1
2018-Feb-15 16:00N 34°39' E 135°19'5 9.5
2018-Feb-15 15:30N 34°36' E 135°15'510.2
2018-Feb-15 15:00N 34°35' E 135°08'611.1
2018-Feb-15 14:30N 34°37' E 135°02'611.2
2018-Feb-15 14:00N 34°36' E 134°55'510.6
2018-Feb-15 13:30N 34°33' E 134°49'510.2
2018-Feb-15 13:00N 34°31' E 134°44'510.1
2018-Feb-15 12:30N 34°29' E 134°38'510.1
2018-Feb-15 12:00N 34°27' E 134°32'510.2
2018-Feb-15 11:30N 34°26' E 134°27'87 8.8
2018-Feb-15 01:38N 34°01' E 132°46'212.6
2018-Feb-15 01:30N 33°60' E 132°45'712.8
2018-Feb-15 00:58N 33°54' E 132°42'3 4.4
2018-Feb-15 00:22N 33°51' E 132°42'0 0.0
2018-Feb-14 23:55N 33°51' E 132°42'0 0.0
2018-Feb-14 23:30N 33°51' E 132°42'0 0.3
2018-Feb-14 23:00N 33°51' E 132°42'2 2.9
2018-Feb-14 22:26N 33°52' E 132°40'0 0.0
2018-Feb-14 21:57N 33°52' E 132°40'0 0.0
2018-Feb-14 20:45N 33°52' E 132°40'0 0.0
2018-Feb-14 20:30N 33°52' E 132°40'0 0.1
2018-Feb-14 19:30N 33°52' E 132°40'0 0.1
2018-Feb-14 18:59N 33°52' E 132°40'4 7.7
2018-Feb-14 18:30N 33°55' E 132°42'7910.7
2018-Feb-14 11:10N 34°26' E 134°09'312.9
2018-Feb-14 10:55N 34°24' E 134°13'512.3
2018-Feb-14 10:30N 34°25' E 134°19'611.7
2018-Feb-14 10:01N 34°27' E 134°26'611.5
2018-Feb-14 09:30N 34°29' E 134°33'611.2
2018-Feb-14 09:00N 34°31' E 134°39'611.3
2018-Feb-14 08:31N 34°33' E 134°45'611.1
2018-Feb-14 08:01N 34°35' E 134°52'510.6
2018-Feb-14 07:30N 34°37' E 134°57'5 9.1
2018-Feb-14 07:00N 34°36' E 135°03'510.5
2018-Feb-14 06:30N 34°37' E 135°09'  

Dump ship's entire track history